Syria, VA

6:01 PM EST on March 03, 2015 (GMT -0500)
Syria, VA | Change Station
CLOSE
Current Station
Personal Weather Station
Location: Syria, VA
Elevation: 722 ft
Nearby Weather Stations
Active Advisory: Winter Storm Watch Active Notice: Public Information Statement

Elev 722 ft 38.48 °N, 78.33 °W | Updated 58 seconds ago

Overcast
Overcast
36.5 °F
Feels Like 32 °F
N
6.0
Wind Variable Wind from SW
Gusts 19.0 mph

Today
High -- | Low -- °F
--% Chance of Precip.
Yesterday
High -- | Low -- °F
Precip. -- in
6:43 AM 6:08 PM
Waxing Gibbous, 97% visible
Pressure 29.98 in
Visibility 10.0 miles
Clouds Mostly Cloudy 3100 ft
Windchill 32 °F
Dew Point 26 °F
Humidity 65%
Rainfall 0.00 in
Snow Depth Not available.
UV 0 out of 12
Pollen .90 out of 12
Air Quality Not available.
Flu Activity Not available.
METAR KLUA 032255Z AUTO 22016G24KT 10SM BKN031 03/M01 A2998 RMK AO2

More Conditions Fewer Conditions

Pressure 29.98 in
Visibility 10.0 miles
Clouds Mostly Cloudy 3100 ft
Windchill 32 °F
Dew Point 26 °F
Humidity 65%
Rainfall 0.00 in
Snow Depth Not available.
UV 0 out of 12
Pollen .90 out of 12
Air Quality Not available.
Flu Activity Not available.
METAR KLUA 032255Z AUTO 22016G24KT 10SM BKN031 03/M01 A2998 RMK AO2

More Conditions Fewer Conditions

10-Day Weather Forecast

Almanac

Astronomy

Mar. 03, 2015 Rise Set
Actual Time
Civil Twilight
Nautical Twilight
Astronomical Twilight
Moon
Length of Visible Light
Length of Day
Tomorrow will be .
, % of the Moon is Illuminated

Today's Extremes

State Highs State Lows

Community

WunderPhotos

Upload Photos

1,802,299 photos uploaded!

WunderBlogs® & News

Nearby

Air Quality

  Air Quality AQ Index Pollutant
Not available.

Snow Depth

Station Depth Elevation

Earthquake Activity

City Distance Mag. Time & Date
Minimum magnitude displayed is 2.5.

Coastal Water Temperatures

Place Temperature

Nearby Weather Stations

Winter Storm Watch
Statement as of 2:50 PM EST on March 03, 2015

... Winter Storm Watch in effect from Wednesday evening through
Thursday evening...

The National Weather Service in Baltimore MD/Washington has
issued a Winter Storm Watch... which is in effect from Wednesday
evening through Thursday evening.

* Locations... Potomac Highlands and the northern Shenandoah
Valley.

* Hazard types... snow... heavy at times.

* Timing... rain changing to snow Wednesday evening. Snow may be
heavy at times Wednesday night into Thursday morning.

* Impacts... roads will be snow covered with visibility reduced to
near one-quarter mile at times. Traveling potentially will be
dangerous.

* Winds... northwest around 10 mph.

* Temperatures... 25 to 30 degrees.

Precautionary/preparedness actions...

A Winter Storm Watch means there is a potential for significant
snow... sleet... or ice accumulations that may impact travel.
Continue to monitor the latest forecasts.